sensor_id;sensor_type;location;lat;lon;timestamp;temperature;humidity
18950;DHT22;9608;49.288;8.130;2023-03-19T00:00:48;11.80;99.90
18950;DHT22;9608;49.288;8.130;2023-03-19T00:03:18;11.80;99.90
18950;DHT22;9608;49.288;8.130;2023-03-19T00:05:54;11.90;99.90
18950;DHT22;9608;49.288;8.130;2023-03-19T00:08:27;11.90;99.90
18950;DHT22;9608;49.288;8.130;2023-03-19T00:11:16;11.90;99.90
18950;DHT22;9608;49.288;8.130;2023-03-19T00:13:47;11.90;99.90
18950;DHT22;9608;49.288;8.130;2023-03-19T00:16:17;11.90;99.90
18950;DHT22;9608;49.288;8.130;2023-03-19T00:18:47;11.90;99.90
18950;DHT22;9608;49.288;8.130;2023-03-19T00:21:17;11.90;99.90
18950;DHT22;9608;49.288;8.130;2023-03-19T00:23:47;11.90;99.90
18950;DHT22;9608;49.288;8.130;2023-03-19T00:26:19;11.90;99.90
18950;DHT22;9608;49.288;8.130;2023-03-19T00:28:47;11.90;99.90
18950;DHT22;9608;49.288;8.130;2023-03-19T00:31:18;11.90;99.90
18950;DHT22;9608;49.288;8.130;2023-03-19T00:34:17;12.00;99.90
18950;DHT22;9608;49.288;8.130;2023-03-19T00:36:47;12.10;99.90
18950;DHT22;9608;49.288;8.130;2023-03-19T00:39:16;12.10;99.90
18950;DHT22;9608;49.288;8.130;2023-03-19T00:41:46;12.20;99.90
18950;DHT22;9608;49.288;8.130;2023-03-19T00:44:19;12.30;99.90
18950;DHT22;9608;49.288;8.130;2023-03-19T00:46:49;12.50;99.90
18950;DHT22;9608;49.288;8.130;2023-03-19T00:49:27;12.80;99.90
18950;DHT22;9608;49.288;8.130;2023-03-19T00:52:45;12.90;99.90
18950;DHT22;9608;49.288;8.130;2023-03-19T00:55:30;13.30;99.90
18950;DHT22;9608;49.288;8.130;2023-03-19T00:58:08;13.50;99.90
18950;DHT22;9608;49.288;8.130;2023-03-19T01:00:55;13.80;99.90
18950;DHT22;9608;49.288;8.130;2023-03-19T01:04:03;13.80;99.90
18950;DHT22;9608;49.288;8.130;2023-03-19T01:06:49;13.90;99.90
18950;DHT22;9608;49.288;8.130;2023-03-19T01:09:50;13.90;99.90
18950;DHT22;9608;49.288;8.130;2023-03-19T01:15:50;14.00;99.90
18950;DHT22;9608;49.288;8.130;2023-03-19T01:18:49;14.10;99.90
18950;DHT22;9608;49.288;8.130;2023-03-19T01:21:18;14.20;99.90
18950;DHT22;9608;49.288;8.130;2023-03-19T01:23:56;14.20;99.90
18950;DHT22;9608;49.288;8.130;2023-03-19T01:26:53;14.30;99.90
18950;DHT22;9608;49.288;8.130;2023-03-19T01:29:46;14.30;99.90
18950;DHT22;9608;49.288;8.130;2023-03-19T01:32:21;14.30;99.90
18950;DHT22;9608;49.288;8.130;2023-03-19T01:35:19;14.30;99.90
18950;DHT22;9608;49.288;8.130;2023-03-19T01:38:06;14.30;99.90
18950;DHT22;9608;49.288;8.130;2023-03-19T01:40:44;14.30;99.90
18950;DHT22;9608;49.288;8.130;2023-03-19T01:43:16;14.30;99.90
18950;DHT22;9608;49.288;8.130;2023-03-19T01:45:57;14.20;99.90
18950;DHT22;9608;49.288;8.130;2023-03-19T01:48:49;14.20;99.90
18950;DHT22;9608;49.288;8.130;2023-03-19T01:54:43;14.20;99.90
18950;DHT22;9608;49.288;8.130;2023-03-19T01:57:22;14.20;99.90
18950;DHT22;9608;49.288;8.130;2023-03-19T02:00:22;14.20;99.90
18950;DHT22;9608;49.288;8.130;2023-03-19T02:02:52;14.20;99.90
18950;DHT22;9608;49.288;8.130;2023-03-19T02:05:51;14.20;99.90
18950;DHT22;9608;49.288;8.130;2023-03-19T02:08:47;14.20;99.90
18950;DHT22;9608;49.288;8.130;2023-03-19T02:11:18;14.20;99.90
18950;DHT22;9608;49.288;8.130;2023-03-19T02:13:48;14.30;99.90
18950;DHT22;9608;49.288;8.130;2023-03-19T02:16:15;14.40;99.90
18950;DHT22;9608;49.288;8.130;2023-03-19T02:18:43;14.30;99.90
18950;DHT22;9608;49.288;8.130;2023-03-19T02:21:16;14.30;99.90
18950;DHT22;9608;49.288;8.130;2023-03-19T02:23:48;14.30;99.90
18950;DHT22;9608;49.288;8.130;2023-03-19T02:26:21;14.20;99.90
18950;DHT22;9608;49.288;8.130;2023-03-19T02:28:50;14.10;99.90
18950;DHT22;9608;49.288;8.130;2023-03-19T02:31:19;13.90;99.90
18950;DHT22;9608;49.288;8.130;2023-03-19T02:33:56;13.60;99.90
18950;DHT22;9608;49.288;8.130;2023-03-19T02:36:45;13.40;99.90
18950;DHT22;9608;49.288;8.130;2023-03-19T02:39:18;13.20;99.90
18950;DHT22;9608;49.288;8.130;2023-03-19T02:41:49;13.10;99.90
18950;DHT22;9608;49.288;8.130;2023-03-19T02:44:17;13.10;99.90
18950;DHT22;9608;49.288;8.130;2023-03-19T02:47:01;12.90;99.90
18950;DHT22;9608;49.288;8.130;2023-03-19T02:52:54;12.50;99.90
18950;DHT22;9608;49.288;8.130;2023-03-19T02:55:41;12.30;99.90
18950;DHT22;9608;49.288;8.130;2023-03-19T03:01:36;12.20;99.90
18950;DHT22;9608;49.288;8.130;2023-03-19T03:04:11;12.20;99.90
18950;DHT22;9608;49.288;8.130;2023-03-19T03:06:58;12.20;99.90
18950;DHT22;9608;49.288;8.130;2023-03-19T03:09:41;12.20;99.90
18950;DHT22;9608;49.288;8.130;2023-03-19T03:12:17;12.20;99.90
18950;DHT22;9608;49.288;8.130;2023-03-19T03:15:06;12.20;99.90
18950;DHT22;9608;49.288;8.130;2023-03-19T03:18:05;12.20;99.90
18950;DHT22;9608;49.288;8.130;2023-03-19T03:23:59;12.30;99.90
18950;DHT22;9608;49.288;8.130;2023-03-19T03:26:40;12.30;99.90
18950;DHT22;9608;49.288;8.130;2023-03-19T03:29:21;12.30;99.90
18950;DHT22;9608;49.288;8.130;2023-03-19T03:32:11;12.40;99.90
18950;DHT22;9608;49.288;8.130;2023-03-19T03:34:53;12.40;99.90
18950;DHT22;9608;49.288;8.130;2023-03-19T03:37:29;12.40;99.90
18950;DHT22;9608;49.288;8.130;2023-03-19T03:40:18;12.30;99.90
18950;DHT22;9608;49.288;8.130;2023-03-19T03:43:08;12.20;99.90
18950;DHT22;9608;49.288;8.130;2023-03-19T03:45:41;12.10;99.90
18950;DHT22;9608;49.288;8.130;2023-03-19T03:48:32;12.10;99.90
18950;DHT22;9608;49.288;8.130;2023-03-19T03:51:18;12.10;99.90
18950;DHT22;9608;49.288;8.130;2023-03-19T03:56:44;12.10;99.90
18950;DHT22;9608;49.288;8.130;2023-03-19T03:59:34;12.20;99.90
18950;DHT22;9608;49.288;8.130;2023-03-19T04:02:13;12.30;99.90
18950;DHT22;9608;49.288;8.130;2023-03-19T04:04:40;12.30;99.90
18950;DHT22;9608;49.288;8.130;2023-03-19T04:07:20;12.30;99.90
18950;DHT22;9608;49.288;8.130;2023-03-19T04:10:11;12.30;99.90
18950;DHT22;9608;49.288;8.130;2023-03-19T04:12:42;12.40;99.90
18950;DHT22;9608;49.288;8.130;2023-03-19T04:15:14;12.30;99.90
18950;DHT22;9608;49.288;8.130;2023-03-19T04:18:05;12.40;99.90
18950;DHT22;9608;49.288;8.130;2023-03-19T04:20:39;12.40;99.90
18950;DHT22;9608;49.288;8.130;2023-03-19T04:23:40;12.40;99.90
18950;DHT22;9608;49.288;8.130;2023-03-19T04:26:09;12.50;99.90
18950;DHT22;9608;49.288;8.130;2023-03-19T04:28:59;12.60;99.90
18950;DHT22;9608;49.288;8.130;2023-03-19T04:31:38;12.60;99.90
18950;DHT22;9608;49.288;8.130;2023-03-19T04:34:08;12.60;99.90
18950;DHT22;9608;49.288;8.130;2023-03-19T04:36:36;12.70;99.90
18950;DHT22;9608;49.288;8.130;2023-03-19T04:39:08;12.70;99.90
18950;DHT22;9608;49.288;8.130;2023-03-19T04:41:41;12.70;99.90
18950;DHT22;9608;49.288;8.130;2023-03-19T04:44:52;12.80;99.90
18950;DHT22;9608;49.288;8.130;2023-03-19T04:47:45;12.80;99.90
18950;DHT22;9608;49.288;8.130;2023-03-19T04:50:17;12.80;99.90
18950;DHT22;9608;49.288;8.130;2023-03-19T04:53:08;12.80;99.90
18950;DHT22;9608;49.288;8.130;2023-03-19T04:55:46;12.80;99.90
18950;DHT22;9608;49.288;8.130;2023-03-19T04:58:35;12.80;99.90
18950;DHT22;9608;49.288;8.130;2023-03-19T05:01:08;12.80;99.90
18950;DHT22;9608;49.288;8.130;2023-03-19T05:03:38;12.70;99.90
18950;DHT22;9608;49.288;8.130;2023-03-19T05:06:09;12.70;99.90
18950;DHT22;9608;49.288;8.130;2023-03-19T05:08:39;12.70;99.90
18950;DHT22;9608;49.288;8.130;2023-03-19T05:11:11;12.70;99.90
18950;DHT22;9608;49.288;8.130;2023-03-19T05:14:10;12.60;99.90
18950;DHT22;9608;49.288;8.130;2023-03-19T05:17:09;12.40;99.90
18950;DHT22;9608;49.288;8.130;2023-03-19T05:20:08;12.40;99.90
18950;DHT22;9608;49.288;8.130;2023-03-19T05:26:10;12.30;99.90
18950;DHT22;9608;49.288;8.130;2023-03-19T05:28:40;12.30;99.90
18950;DHT22;9608;49.288;8.130;2023-03-19T05:31:39;12.30;99.90
18950;DHT22;9608;49.288;8.130;2023-03-19T05:34:09;12.20;99.90
18950;DHT22;9608;49.288;8.130;2023-03-19T05:36:42;12.20;99.90
18950;DHT22;9608;49.288;8.130;2023-03-19T05:39:38;12.10;99.90
18950;DHT22;9608;49.288;8.130;2023-03-19T05:42:08;11.90;99.90
18950;DHT22;9608;49.288;8.130;2023-03-19T05:45:07;11.80;99.90
18950;DHT22;9608;49.288;8.130;2023-03-19T05:47:40;11.70;99.90
18950;DHT22;9608;49.288;8.130;2023-03-19T05:50:21;11.70;99.90
18950;DHT22;9608;49.288;8.130;2023-03-19T05:53:08;11.60;99.90
18950;DHT22;9608;49.288;8.130;2023-03-19T05:55:35;11.50;99.90
18950;DHT22;9608;49.288;8.130;2023-03-19T05:58:07;11.40;99.90
18950;DHT22;9608;49.288;8.130;2023-03-19T06:00:40;11.30;99.90
18950;DHT22;9608;49.288;8.130;2023-03-19T06:03:18;11.10;99.90
18950;DHT22;9608;49.288;8.130;2023-03-19T06:06:05;10.90;99.90
18950;DHT22;9608;49.288;8.130;2023-03-19T06:08:35;10.80;99.90
18950;DHT22;9608;49.288;8.130;2023-03-19T06:11:04;10.90;99.90
18950;DHT22;9608;49.288;8.130;2023-03-19T06:13:38;10.90;99.90
18950;DHT22;9608;49.288;8.130;2023-03-19T06:16:08;10.80;99.90
18950;DHT22;9608;49.288;8.130;2023-03-19T06:18:37;10.90;99.90
18950;DHT22;9608;49.288;8.130;2023-03-19T06:21:09;11.00;99.90
18950;DHT22;9608;49.288;8.130;2023-03-19T06:24:00;10.90;99.90
18950;DHT22;9608;49.288;8.130;2023-03-19T06:26:34;10.90;99.90
18950;DHT22;9608;49.288;8.130;2023-03-19T06:29:08;11.00;99.90
18950;DHT22;9608;49.288;8.130;2023-03-19T06:34:37;11.00;99.90
18950;DHT22;9608;49.288;8.130;2023-03-19T06:37:14;11.00;99.90
18950;DHT22;9608;49.288;8.130;2023-03-19T06:40:16;11.00;99.90
18950;DHT22;9608;49.288;8.130;2023-03-19T06:42:56;11.00;99.90
18950;DHT22;9608;49.288;8.130;2023-03-19T06:48:38;11.10;99.90
18950;DHT22;9608;49.288;8.130;2023-03-19T06:51:13;11.20;99.90
18950;DHT22;9608;49.288;8.130;2023-03-19T06:54:05;11.10;99.90
18950;DHT22;9608;49.288;8.130;2023-03-19T06:56:47;11.10;99.90
18950;DHT22;9608;49.288;8.130;2023-03-19T06:59:30;11.20;99.90
18950;DHT22;9608;49.288;8.130;2023-03-19T07:02:14;11.20;99.90
18950;DHT22;9608;49.288;8.130;2023-03-19T07:05:05;11.00;99.90
18950;DHT22;9608;49.288;8.130;2023-03-19T07:07:34;11.00;99.90
18950;DHT22;9608;49.288;8.130;2023-03-19T07:10:05;11.00;99.90
18950;DHT22;9608;49.288;8.130;2023-03-19T07:12:37;10.90;99.90
18950;DHT22;9608;49.288;8.130;2023-03-19T07:15:18;11.00;99.90
18950;DHT22;9608;49.288;8.130;2023-03-19T07:17:56;11.30;99.90
18950;DHT22;9608;49.288;8.130;2023-03-19T07:21:03;11.50;99.90
18950;DHT22;9608;49.288;8.130;2023-03-19T07:23:38;11.80;99.90
18950;DHT22;9608;49.288;8.130;2023-03-19T07:26:06;12.00;99.90
18950;DHT22;9608;49.288;8.130;2023-03-19T07:28:36;12.20;99.90
18950;DHT22;9608;49.288;8.130;2023-03-19T07:31:07;12.40;99.90
18950;DHT22;9608;49.288;8.130;2023-03-19T07:33:39;12.60;99.90
18950;DHT22;9608;49.288;8.130;2023-03-19T07:45:29;12.80;99.90
18950;DHT22;9608;49.288;8.130;2023-03-19T07:48:36;13.00;99.90
18950;DHT22;9608;49.288;8.130;2023-03-19T07:51:22;13.20;99.90
18950;DHT22;9608;49.288;8.130;2023-03-19T07:54:39;13.50;99.90
18950;DHT22;9608;49.288;8.130;2023-03-19T07:57:28;13.80;99.90
18950;DHT22;9608;49.288;8.130;2023-03-19T08:00:01;14.00;99.90
18950;DHT22;9608;49.288;8.130;2023-03-19T08:02:31;14.00;99.90
18950;DHT22;9608;49.288;8.130;2023-03-19T08:08:34;14.30;99.90
18950;DHT22;9608;49.288;8.130;2023-03-19T08:14:37;14.70;99.90
18950;DHT22;9608;49.288;8.130;2023-03-19T08:17:31;14.80;99.90
18950;DHT22;9608;49.288;8.130;2023-03-19T08:23:00;14.90;99.90
18950;DHT22;9608;49.288;8.130;2023-03-19T08:26:02;15.10;99.90
18950;DHT22;9608;49.288;8.130;2023-03-19T08:28:34;15.20;99.90
18950;DHT22;9608;49.288;8.130;2023-03-19T08:31:32;15.10;99.90
18950;DHT22;9608;49.288;8.130;2023-03-19T08:34:40;15.30;99.90
18950;DHT22;9608;49.288;8.130;2023-03-19T08:37:29;15.50;99.90
18950;DHT22;9608;49.288;8.130;2023-03-19T08:43:39;15.60;99.90
18950;DHT22;9608;49.288;8.130;2023-03-19T08:46:38;15.70;99.90
18950;DHT22;9608;49.288;8.130;2023-03-19T08:49:38;15.70;99.90
18950;DHT22;9608;49.288;8.130;2023-03-19T08:52:39;16.00;99.90
18950;DHT22;9608;49.288;8.130;2023-03-19T08:55:33;16.40;99.90
18950;DHT22;9608;49.288;8.130;2023-03-19T08:58:39;16.70;99.90
18950;DHT22;9608;49.288;8.130;2023-03-19T09:01:32;17.00;99.90
18950;DHT22;9608;49.288;8.130;2023-03-19T09:04:34;17.10;99.90
18950;DHT22;9608;49.288;8.130;2023-03-19T09:07:28;17.50;99.90
18950;DHT22;9608;49.288;8.130;2023-03-19T09:10:36;17.80;99.90
18950;DHT22;9608;49.288;8.130;2023-03-19T09:13:31;18.00;99.90
18950;DHT22;9608;49.288;8.130;2023-03-19T09:16:37;18.10;99.90
18950;DHT22;9608;49.288;8.130;2023-03-19T09:19:37;18.20;99.90
18950;DHT22;9608;49.288;8.130;2023-03-19T09:22:42;18.20;99.90
18950;DHT22;9608;49.288;8.130;2023-03-19T09:32:35;18.20;99.90
18950;DHT22;9608;49.288;8.130;2023-03-19T09:40:20;18.00;99.90
18950;DHT22;9608;49.288;8.130;2023-03-19T09:49:46;18.30;99.90
18950;DHT22;9608;49.288;8.130;2023-03-19T09:56:35;18.70;99.90
18950;DHT22;9608;49.288;8.130;2023-03-19T10:10:14;18.70;99.90
18950;DHT22;9608;49.288;8.130;2023-03-19T10:16:38;18.70;99.90
18950;DHT22;9608;49.288;8.130;2023-03-19T10:19:39;18.70;99.90
18950;DHT22;9608;49.288;8.130;2023-03-19T10:22:58;18.80;99.90
18950;DHT22;9608;49.288;8.130;2023-03-19T10:29:37;19.00;99.90
18950;DHT22;9608;49.288;8.130;2023-03-19T10:33:01;19.00;99.90
18950;DHT22;9608;49.288;8.130;2023-03-19T10:36:11;19.00;99.90
18950;DHT22;9608;49.288;8.130;2023-03-19T10:39:34;19.00;99.90
18950;DHT22;9608;49.288;8.130;2023-03-19T10:46:54;19.20;99.90
18950;DHT22;9608;49.288;8.130;2023-03-19T10:49:04;19.20;99.90
18950;DHT22;9608;49.288;8.130;2023-03-19T10:51:37;19.20;99.90
18950;DHT22;9608;49.288;8.130;2023-03-19T10:54:38;19.10;99.90
18950;DHT22;9608;49.288;8.130;2023-03-19T10:57:37;19.10;99.90
18950;DHT22;9608;49.288;8.130;2023-03-19T11:00:32;19.00;99.90
18950;DHT22;9608;49.288;8.130;2023-03-19T11:03:34;19.10;99.90
18950;DHT22;9608;49.288;8.130;2023-03-19T11:06:40;18.90;99.90
18950;DHT22;9608;49.288;8.130;2023-03-19T11:11:00;18.90;99.90
18950;DHT22;9608;49.288;8.130;2023-03-19T11:13:03;19.10;99.90
18950;DHT22;9608;49.288;8.130;2023-03-19T11:19:30;19.80;99.90
18950;DHT22;9608;49.288;8.130;2023-03-19T11:26:00;19.80;99.90
18950;DHT22;9608;49.288;8.130;2023-03-19T11:29:04;20.00;99.90
18950;DHT22;9608;49.288;8.130;2023-03-19T11:39:04;19.60;99.90
18950;DHT22;9608;49.288;8.130;2023-03-19T11:45:57;19.10;99.90
18950;DHT22;9608;49.288;8.130;2023-03-19T11:55:57;18.00;99.90
18950;DHT22;9608;49.288;8.130;2023-03-19T12:05:58;18.10;99.90
18950;DHT22;9608;49.288;8.130;2023-03-19T12:10:09;17.70;99.90
18950;DHT22;9608;49.288;8.130;2023-03-19T12:30:21;15.40;99.90
18950;DHT22;9608;49.288;8.130;2023-03-19T12:37:02;15.00;99.90
18950;DHT22;9608;49.288;8.130;2023-03-19T12:40:03;14.60;99.90
18950;DHT22;9608;49.288;8.130;2023-03-19T12:46:18;14.70;99.90
18950;DHT22;9608;49.288;8.130;2023-03-19T12:49:04;14.90;99.90
18950;DHT22;9608;49.288;8.130;2023-03-19T12:58:58;15.40;99.90
18950;DHT22;9608;49.288;8.130;2023-03-19T13:05:15;15.10;99.90
18950;DHT22;9608;49.288;8.130;2023-03-19T13:07:53;15.10;99.90
18950;DHT22;9608;49.288;8.130;2023-03-19T13:10:23;15.10;99.90
18950;DHT22;9608;49.288;8.130;2023-03-19T13:12:59;14.80;99.90
18950;DHT22;9608;49.288;8.130;2023-03-19T13:15:32;14.50;99.90
18950;DHT22;9608;49.288;8.130;2023-03-19T13:18:14;14.30;99.90
18950;DHT22;9608;49.288;8.130;2023-03-19T13:21:03;14.10;99.90
18950;DHT22;9608;49.288;8.130;2023-03-19T13:23:50;14.10;99.90
18950;DHT22;9608;49.288;8.130;2023-03-19T13:26:30;14.20;99.90
18950;DHT22;9608;49.288;8.130;2023-03-19T13:29:06;14.40;99.90
18950;DHT22;9608;49.288;8.130;2023-03-19T13:31:42;14.50;99.90
18950;DHT22;9608;49.288;8.130;2023-03-19T13:34:23;14.60;99.90
18950;DHT22;9608;49.288;8.130;2023-03-19T13:37:17;14.80;99.90
18950;DHT22;9608;49.288;8.130;2023-03-19T13:39:51;15.00;99.90
18950;DHT22;9608;49.288;8.130;2023-03-19T13:42:34;15.30;99.90
18950;DHT22;9608;49.288;8.130;2023-03-19T13:45:03;15.70;99.90
18950;DHT22;9608;49.288;8.130;2023-03-19T13:47:51;15.80;99.90
18950;DHT22;9608;49.288;8.130;2023-03-19T13:53:40;16.30;99.90
18950;DHT22;9608;49.288;8.130;2023-03-19T13:56:23;16.40;99.90
18950;DHT22;9608;49.288;8.130;2023-03-19T13:59:24;16.40;99.90
18950;DHT22;9608;49.288;8.130;2023-03-19T14:05:50;16.00;99.90
18950;DHT22;9608;49.288;8.130;2023-03-19T14:08:21;15.80;99.90
18950;DHT22;9608;49.288;8.130;2023-03-19T14:11:09;15.80;99.90
18950;DHT22;9608;49.288;8.130;2023-03-19T14:13:51;15.90;99.90
18950;DHT22;9608;49.288;8.130;2023-03-19T14:16:32;16.40;99.90
18950;DHT22;9608;49.288;8.130;2023-03-19T14:19:20;16.40;99.90
18950;DHT22;9608;49.288;8.130;2023-03-19T14:22:36;16.70;99.90
18950;DHT22;9608;49.288;8.130;2023-03-19T14:25:19;16.90;99.90
18950;DHT22;9608;49.288;8.130;2023-03-19T14:28:17;17.00;99.90
18950;DHT22;9608;49.288;8.130;2023-03-19T14:30:48;17.20;99.90
18950;DHT22;9608;49.288;8.130;2023-03-19T14:33:44;17.70;99.90
18950;DHT22;9608;49.288;8.130;2023-03-19T14:36:27;18.00;99.90
18950;DHT22;9608;49.288;8.130;2023-03-19T14:43:10;18.30;99.90
18950;DHT22;9608;49.288;8.130;2023-03-19T14:53:02;16.90;99.90
18950;DHT22;9608;49.288;8.130;2023-03-19T14:55:56;16.90;99.90
18950;DHT22;9608;49.288;8.130;2023-03-19T15:02:01;16.80;99.90
18950;DHT22;9608;49.288;8.130;2023-03-19T15:04:53;16.80;99.90
18950;DHT22;9608;49.288;8.130;2023-03-19T15:10:22;16.90;99.90
18950;DHT22;9608;49.288;8.130;2023-03-19T15:13:36;16.90;99.90
18950;DHT22;9608;49.288;8.130;2023-03-19T15:16:32;16.90;99.90
18950;DHT22;9608;49.288;8.130;2023-03-19T15:19:23;16.90;99.90
18950;DHT22;9608;49.288;8.130;2023-03-19T15:23:11;16.70;99.90
18950;DHT22;9608;49.288;8.130;2023-03-19T15:25:19;16.50;99.90
18950;DHT22;9608;49.288;8.130;2023-03-19T15:28:18;16.50;99.90
18950;DHT22;9608;49.288;8.130;2023-03-19T15:31:00;16.60;99.90
18950;DHT22;9608;49.288;8.130;2023-03-19T15:33:54;16.60;99.90
18950;DHT22;9608;49.288;8.130;2023-03-19T15:36:47;16.60;99.90
18950;DHT22;9608;49.288;8.130;2023-03-19T15:39:23;16.40;99.90
18950;DHT22;9608;49.288;8.130;2023-03-19T15:42:23;16.50;99.90
18950;DHT22;9608;49.288;8.130;2023-03-19T15:51:46;16.40;99.90
18950;DHT22;9608;49.288;8.130;2023-03-19T15:54:19;16.10;99.90
18950;DHT22;9608;49.288;8.130;2023-03-19T15:58:02;16.00;99.90
18950;DHT22;9608;49.288;8.130;2023-03-19T16:00:17;15.70;99.90
18950;DHT22;9608;49.288;8.130;2023-03-19T16:02:48;15.80;99.90
18950;DHT22;9608;49.288;8.130;2023-03-19T16:05:24;15.80;99.90
18950;DHT22;9608;49.288;8.130;2023-03-19T16:07:54;15.90;99.90
18950;DHT22;9608;49.288;8.130;2023-03-19T16:10:43;15.90;99.90
18950;DHT22;9608;49.288;8.130;2023-03-19T16:16:21;15.60;99.90
18950;DHT22;9608;49.288;8.130;2023-03-19T16:18:54;15.50;99.90
18950;DHT22;9608;49.288;8.130;2023-03-19T16:24:22;15.30;99.90
18950;DHT22;9608;49.288;8.130;2023-03-19T16:27:09;15.30;99.90
18950;DHT22;9608;49.288;8.130;2023-03-19T16:29:47;15.20;99.90
18950;DHT22;9608;49.288;8.130;2023-03-19T16:32:40;14.80;99.90
18950;DHT22;9608;49.288;8.130;2023-03-19T16:35:15;13.90;99.90
18950;DHT22;9608;49.288;8.130;2023-03-19T16:38:14;13.40;99.90
18950;DHT22;9608;49.288;8.130;2023-03-19T16:41:17;13.20;99.90
18950;DHT22;9608;49.288;8.130;2023-03-19T16:43:53;13.20;99.90
18950;DHT22;9608;49.288;8.130;2023-03-19T16:46:42;13.30;99.90
18950;DHT22;9608;49.288;8.130;2023-03-19T16:49:19;13.40;99.90
18950;DHT22;9608;49.288;8.130;2023-03-19T16:52:14;13.50;99.90
18950;DHT22;9608;49.288;8.130;2023-03-19T16:55:14;13.50;99.90
18950;DHT22;9608;49.288;8.130;2023-03-19T16:58:03;13.70;99.90
18950;DHT22;9608;49.288;8.130;2023-03-19T17:07:01;14.20;99.90
18950;DHT22;9608;49.288;8.130;2023-03-19T17:09:42;14.10;99.90
18950;DHT22;9608;49.288;8.130;2023-03-19T17:12:23;14.00;99.90
18950;DHT22;9608;49.288;8.130;2023-03-19T17:15:21;14.10;99.90
18950;DHT22;9608;49.288;8.130;2023-03-19T17:18:16;14.00;99.90
18950;DHT22;9608;49.288;8.130;2023-03-19T17:21:14;13.90;99.90
18950;DHT22;9608;49.288;8.130;2023-03-19T17:27:12;13.80;99.90
18950;DHT22;9608;49.288;8.130;2023-03-19T17:29:42;13.50;99.90
18950;DHT22;9608;49.288;8.130;2023-03-19T17:33:12;13.20;99.90
18950;DHT22;9608;49.288;8.130;2023-03-19T17:35:41;13.00;99.90
18950;DHT22;9608;49.288;8.130;2023-03-19T17:41:19;12.70;99.90
18950;DHT22;9608;49.288;8.130;2023-03-19T17:47:10;12.70;99.90
18950;DHT22;9608;49.288;8.130;2023-03-19T17:49:40;12.80;99.90
18950;DHT22;9608;49.288;8.130;2023-03-19T17:52:13;13.20;99.90
18950;DHT22;9608;49.288;8.130;2023-03-19T17:55:01;13.30;99.90
18950;DHT22;9608;49.288;8.130;2023-03-19T17:57:51;13.40;99.90
18950;DHT22;9608;49.288;8.130;2023-03-19T18:00:41;13.50;99.90
18950;DHT22;9608;49.288;8.130;2023-03-19T18:03:30;13.40;99.90
18950;DHT22;9608;49.288;8.130;2023-03-19T18:06:15;13.40;99.90
18950;DHT22;9608;49.288;8.130;2023-03-19T18:08:54;13.30;99.90
18950;DHT22;9608;49.288;8.130;2023-03-19T18:11:41;13.20;99.90
18950;DHT22;9608;49.288;8.130;2023-03-19T18:14:13;13.10;99.90
18950;DHT22;9608;49.288;8.130;2023-03-19T18:17:01;13.00;99.90
18950;DHT22;9608;49.288;8.130;2023-03-19T18:19:40;12.90;99.90
18950;DHT22;9608;49.288;8.130;2023-03-19T18:22:14;12.80;99.90
18950;DHT22;9608;49.288;8.130;2023-03-19T18:24:45;12.70;99.90
18950;DHT22;9608;49.288;8.130;2023-03-19T18:27:22;12.50;99.90
18950;DHT22;9608;49.288;8.130;2023-03-19T18:30:14;12.40;99.90
18950;DHT22;9608;49.288;8.130;2023-03-19T18:32:53;12.30;99.90
18950;DHT22;9608;49.288;8.130;2023-03-19T18:35:28;12.20;99.90
18950;DHT22;9608;49.288;8.130;2023-03-19T18:38:17;12.10;99.90
18950;DHT22;9608;49.288;8.130;2023-03-19T18:41:09;12.00;99.90
18950;DHT22;9608;49.288;8.130;2023-03-19T18:43:41;11.80;99.90
18950;DHT22;9608;49.288;8.130;2023-03-19T18:46:12;11.70;99.90
18950;DHT22;9608;49.288;8.130;2023-03-19T18:48:42;11.50;99.90
18950;DHT22;9608;49.288;8.130;2023-03-19T18:51:12;11.40;99.90
18950;DHT22;9608;49.288;8.130;2023-03-19T18:53:40;11.20;99.90
18950;DHT22;9608;49.288;8.130;2023-03-19T18:56:18;11.10;99.90
18950;DHT22;9608;49.288;8.130;2023-03-19T18:58:47;11.00;99.90
18950;DHT22;9608;49.288;8.130;2023-03-19T19:01:18;10.90;99.90
18950;DHT22;9608;49.288;8.130;2023-03-19T19:04:12;10.80;99.90
18950;DHT22;9608;49.288;8.130;2023-03-19T19:09:39;10.50;99.90
18950;DHT22;9608;49.288;8.130;2023-03-19T19:12:11;10.40;99.90
18950;DHT22;9608;49.288;8.130;2023-03-19T19:14:44;10.30;99.90
18950;DHT22;9608;49.288;8.130;2023-03-19T19:17:38;10.20;99.90
18950;DHT22;9608;49.288;8.130;2023-03-19T19:20:13;10.20;99.90
18950;DHT22;9608;49.288;8.130;2023-03-19T19:22:48;10.10;99.90
18950;DHT22;9608;49.288;8.130;2023-03-19T19:25:37;10.10;99.90
18950;DHT22;9608;49.288;8.130;2023-03-19T19:28:21;10.10;99.90
18950;DHT22;9608;49.288;8.130;2023-03-19T19:31:05;10.10;99.90
18950;DHT22;9608;49.288;8.130;2023-03-19T19:33:36;10.00;99.90
18950;DHT22;9608;49.288;8.130;2023-03-19T19:36:09;10.00;99.90
18950;DHT22;9608;49.288;8.130;2023-03-19T19:38:39;10.00;99.90
18950;DHT22;9608;49.288;8.130;2023-03-19T19:41:12;9.90;99.90
18950;DHT22;9608;49.288;8.130;2023-03-19T19:43:51;10.00;99.90
18950;DHT22;9608;49.288;8.130;2023-03-19T19:46:29;10.00;99.90
18950;DHT22;9608;49.288;8.130;2023-03-19T19:49:07;10.10;99.90
18950;DHT22;9608;49.288;8.130;2023-03-19T19:51:36;10.00;99.90
18950;DHT22;9608;49.288;8.130;2023-03-19T19:54:06;10.00;99.90
18950;DHT22;9608;49.288;8.130;2023-03-19T19:56:38;10.00;99.90
18950;DHT22;9608;49.288;8.130;2023-03-19T19:59:13;10.10;99.90
18950;DHT22;9608;49.288;8.130;2023-03-19T20:01:40;10.10;99.90
18950;DHT22;9608;49.288;8.130;2023-03-19T20:04:11;10.10;99.90
18950;DHT22;9608;49.288;8.130;2023-03-19T20:06:42;10.00;99.90
18950;DHT22;9608;49.288;8.130;2023-03-19T20:09:10;10.00;99.90
18950;DHT22;9608;49.288;8.130;2023-03-19T20:11:42;9.90;99.90
18950;DHT22;9608;49.288;8.130;2023-03-19T20:14:12;9.90;99.90
18950;DHT22;9608;49.288;8.130;2023-03-19T20:16:45;9.90;99.90
18950;DHT22;9608;49.288;8.130;2023-03-19T20:19:16;9.90;99.90
18950;DHT22;9608;49.288;8.130;2023-03-19T20:21:52;9.90;99.90
18950;DHT22;9608;49.288;8.130;2023-03-19T20:24:20;9.90;99.90
18950;DHT22;9608;49.288;8.130;2023-03-19T20:26:55;9.90;99.90
18950;DHT22;9608;49.288;8.130;2023-03-19T20:29:38;9.90;99.90
18950;DHT22;9608;49.288;8.130;2023-03-19T20:32:22;9.90;99.90
18950;DHT22;9608;49.288;8.130;2023-03-19T20:35:09;9.90;99.90
18950;DHT22;9608;49.288;8.130;2023-03-19T20:37:40;9.90;99.90
18950;DHT22;9608;49.288;8.130;2023-03-19T20:40:07;9.80;99.90
18950;DHT22;9608;49.288;8.130;2023-03-19T20:42:39;9.80;99.90
18950;DHT22;9608;49.288;8.130;2023-03-19T20:45:14;9.90;99.90
18950;DHT22;9608;49.288;8.130;2023-03-19T20:47:41;9.90;99.90
18950;DHT22;9608;49.288;8.130;2023-03-19T20:50:15;10.00;99.90
18950;DHT22;9608;49.288;8.130;2023-03-19T20:52:43;10.20;99.90
18950;DHT22;9608;49.288;8.130;2023-03-19T20:55:26;10.30;99.90
18950;DHT22;9608;49.288;8.130;2023-03-19T20:58:13;10.50;99.90
18950;DHT22;9608;49.288;8.130;2023-03-19T21:00:55;10.60;99.90
18950;DHT22;9608;49.288;8.130;2023-03-19T21:03:40;10.80;99.90
18950;DHT22;9608;49.288;8.130;2023-03-19T21:06:12;10.80;99.90
18950;DHT22;9608;49.288;8.130;2023-03-19T21:08:42;10.90;99.90